createdAt,value
2022-09-13T00:01:08.457Z,100.00
2022-09-13T00:03:34.915Z,100.00
2022-09-13T00:06:13.003Z,100.00
2022-09-13T00:08:41.966Z,100.00
2022-09-13T00:11:19.513Z,100.00
2022-09-13T00:13:46.930Z,100.00
2022-09-13T00:16:14.912Z,100.00
2022-09-13T00:18:41.814Z,99.08
2022-09-13T00:21:11.648Z,100.00
2022-09-13T00:23:39.039Z,100.00
2022-09-13T00:26:11.856Z,100.00
2022-09-13T00:28:40.756Z,100.00
2022-09-13T00:31:09.360Z,100.00
2022-09-13T00:33:36.242Z,100.00
2022-09-13T00:36:08.361Z,100.00
2022-09-13T00:38:35.883Z,98.16
2022-09-13T00:41:09.834Z,100.00
2022-09-13T00:43:48.796Z,100.00
2022-09-13T00:46:38.158Z,100.00
2022-09-13T00:49:13.514Z,100.00
2022-09-13T00:51:45.166Z,100.00
2022-09-13T00:54:17.119Z,100.00
2022-09-13T00:56:48.917Z,100.00
2022-09-13T00:59:28.620Z,100.00
2022-09-13T01:01:57.462Z,100.00
2022-09-13T01:04:29.947Z,100.00
2022-09-13T01:07:03.334Z,100.00
2022-09-13T01:09:33.176Z,100.00
2022-09-13T01:12:25.667Z,100.00
2022-09-13T01:14:52.318Z,100.00
2022-09-13T01:17:18.965Z,100.00
2022-09-13T01:19:45.414Z,100.00
2022-09-13T01:22:23.817Z,100.00
2022-09-13T01:25:28.215Z,100.00
2022-09-13T01:28:12.306Z,100.00
2022-09-13T01:30:51.891Z,100.00
2022-09-13T01:33:24.267Z,100.00
2022-09-13T01:36:13.444Z,100.00
2022-09-13T01:38:51.928Z,100.00
2022-09-13T01:41:36.462Z,100.00
2022-09-13T01:44:24.396Z,100.00
2022-09-13T01:47:08.428Z,100.00
2022-09-13T01:50:07.597Z,100.00
2022-09-13T01:52:56.275Z,100.00
2022-09-13T01:55:33.426Z,100.00
2022-09-13T01:58:15.963Z,100.00
2022-09-13T02:01:08.300Z,100.00
2022-09-13T02:03:57.716Z,100.00
2022-09-13T02:06:29.526Z,100.00
2022-09-13T02:09:00.962Z,100.00
2022-09-13T02:11:27.945Z,100.00
2022-09-13T02:14:09.247Z,100.00
2022-09-13T02:16:45.937Z,100.00
2022-09-13T02:19:20.117Z,100.00
2022-09-13T02:21:52.884Z,100.00
2022-09-13T02:24:33.733Z,100.00
2022-09-13T02:27:05.321Z,100.00
2022-09-13T02:29:38.353Z,100.00
2022-09-13T02:32:16.320Z,100.00
2022-09-13T02:34:57.577Z,100.00
2022-09-13T02:37:27.843Z,100.00
2022-09-13T02:39:59.618Z,100.00
2022-09-13T02:42:41.871Z,100.00
2022-09-13T02:45:09.958Z,100.00
2022-09-13T02:48:00.038Z,100.00
2022-09-13T02:50:44.613Z,100.00
2022-09-13T02:53:30.569Z,100.00
2022-09-13T02:56:02.606Z,100.00
2022-09-13T02:58:35.025Z,100.00
2022-09-13T03:01:04.685Z,100.00
2022-09-13T03:03:31.263Z,100.00
2022-09-13T03:05:57.705Z,100.00
2022-09-13T03:08:24.736Z,100.00
2022-09-13T03:11:23.491Z,100.00
2022-09-13T03:14:29.156Z,100.00
2022-09-13T03:17:16.265Z,100.00
2022-09-13T03:19:59.244Z,100.00
2022-09-13T03:22:54.019Z,100.00
2022-09-13T03:25:26.562Z,100.00
2022-09-13T03:28:06.973Z,100.00
2022-09-13T03:30:37.110Z,100.00
2022-09-13T03:33:20.610Z,100.00
2022-09-13T03:36:11.814Z,100.00
2022-09-13T03:38:44.607Z,100.00
2022-09-13T03:41:17.976Z,100.00
2022-09-13T03:43:50.386Z,100.00
2022-09-13T03:46:31.358Z,100.00
2022-09-13T03:49:02.880Z,100.00
2022-09-13T03:51:29.512Z,100.00
2022-09-13T03:54:01.251Z,100.00
2022-09-13T03:56:27.777Z,100.00
2022-09-13T03:58:54.194Z,100.00
2022-09-13T04:01:23.448Z,100.00
2022-09-13T04:03:56.533Z,100.00
2022-09-13T04:06:23.495Z,100.00
2022-09-13T04:08:54.879Z,100.00
2022-09-13T04:11:26.150Z,100.00
2022-09-13T04:13:55.335Z,100.00
2022-09-13T04:16:24.837Z,100.00
2022-09-13T04:18:51.299Z,100.00
2022-09-13T04:21:22.647Z,100.00
2022-09-13T04:23:52.414Z,100.00
2022-09-13T04:26:18.758Z,100.00
2022-09-13T04:28:45.101Z,100.00
2022-09-13T04:31:11.604Z,100.00
2022-09-13T04:33:41.169Z,100.00
2022-09-13T04:36:07.582Z,100.00
2022-09-13T04:38:34.020Z,100.00
2022-09-13T04:41:00.450Z,100.00
2022-09-13T04:43:26.871Z,100.00
2022-09-13T04:45:53.331Z,100.00
2022-09-13T04:48:21.900Z,100.00
2022-09-13T04:50:50.607Z,100.00
2022-09-13T04:53:17.597Z,100.00
2022-09-13T04:55:44.371Z,100.00
2022-09-13T04:58:10.812Z,100.00
2022-09-13T05:00:37.426Z,100.00
2022-09-13T05:03:03.867Z,100.00
2022-09-13T05:05:32.241Z,100.00
2022-09-13T05:07:58.680Z,100.00
2022-09-13T05:10:27.985Z,100.00
2022-09-13T05:12:54.331Z,100.00
2022-09-13T05:15:23.291Z,100.00
2022-09-13T05:17:49.668Z,100.00
2022-09-13T05:20:18.670Z,100.00
2022-09-13T05:22:45.080Z,100.00
2022-09-13T05:25:14.072Z,100.00
2022-09-13T05:27:43.486Z,100.00
2022-09-13T05:30:10.469Z,100.00
2022-09-13T05:32:36.853Z,100.00
2022-09-13T05:35:03.437Z,100.00
2022-09-13T05:37:31.241Z,100.00
2022-09-13T05:40:13.109Z,100.00
2022-09-13T05:42:39.899Z,100.00
2022-09-13T05:45:07.099Z,100.00
2022-09-13T05:47:33.563Z,100.00
2022-09-13T05:50:10.159Z,100.00
2022-09-13T05:52:37.342Z,100.00
2022-09-13T05:55:06.862Z,100.00
2022-09-13T05:57:33.243Z,100.00
2022-09-13T05:59:59.701Z,100.00
2022-09-13T06:02:28.421Z,100.00
2022-09-13T06:04:57.202Z,100.00
2022-09-13T06:07:23.558Z,100.00
2022-09-13T06:09:50.440Z,100.00
2022-09-13T06:12:16.872Z,100.00
2022-09-13T06:14:45.531Z,100.00
2022-09-13T06:17:11.888Z,100.00
2022-09-13T06:19:39.722Z,100.00
2022-09-13T06:22:06.565Z,100.00
2022-09-13T06:24:38.312Z,100.00
2022-09-13T06:27:07.093Z,100.00
2022-09-13T06:29:33.530Z,99.57
2022-09-13T06:31:59.983Z,99.97
2022-09-13T06:34:31.130Z,100.00
2022-09-13T06:36:58.759Z,99.33
2022-09-13T06:39:27.672Z,100.00
2022-09-13T06:41:54.082Z,99.77
2022-09-13T06:44:20.441Z,96.84
2022-09-13T06:46:47.649Z,98.80
2022-09-13T06:49:14.093Z,98.42
2022-09-13T06:51:40.513Z,99.88
2022-09-13T06:54:07.008Z,97.68
2022-09-13T06:56:36.052Z,97.85
2022-09-13T06:59:05.417Z,95.61
2022-09-13T07:01:36.503Z,94.46
2022-09-13T07:04:06.484Z,93.06
2022-09-13T07:06:36.162Z,95.32
2022-09-13T07:09:05.878Z,98.20
2022-09-13T07:11:35.277Z,94.44
2022-09-13T07:14:02.246Z,93.48
2022-09-13T07:16:33.998Z,92.27
2022-09-13T07:19:03.060Z,88.44
2022-09-13T07:21:29.534Z,92.15
2022-09-13T07:23:56.877Z,87.40
2022-09-13T07:26:24.866Z,88.20
2022-09-13T07:28:59.784Z,86.56
2022-09-13T07:31:29.109Z,86.77
2022-09-13T07:34:00.456Z,86.67
2022-09-13T07:36:28.630Z,86.17
2022-09-13T07:38:55.144Z,88.00
2022-09-13T07:41:23.653Z,86.81
2022-09-13T07:43:51.829Z,89.34
2022-09-13T07:46:21.309Z,88.45
2022-09-13T07:48:49.523Z,86.56
2022-09-13T07:51:18.482Z,89.42
2022-09-13T07:53:57.095Z,83.19
2022-09-13T07:56:27.407Z,84.56
2022-09-13T07:58:55.120Z,82.96
2022-09-13T08:01:31.041Z,82.08
2022-09-13T08:04:03.630Z,82.32
2022-09-13T08:06:32.601Z,79.65
2022-09-13T08:08:59.209Z,80.78
2022-09-13T08:11:44.603Z,80.38
2022-09-13T08:14:15.393Z,80.78
2022-09-13T08:16:44.909Z,82.02
2022-09-13T08:19:14.768Z,77.81
2022-09-13T08:21:42.403Z,78.79
2022-09-13T08:24:14.106Z,80.90
2022-09-13T08:26:41.085Z,81.04
2022-09-13T08:29:07.845Z,77.43
2022-09-13T08:31:37.827Z,78.54
2022-09-13T08:34:04.272Z,76.70
2022-09-13T08:36:38.402Z,75.38
2022-09-13T08:39:04.843Z,76.57
2022-09-13T08:41:39.318Z,77.32
2022-09-13T08:44:07.831Z,76.01
2022-09-13T08:46:41.344Z,72.98
2022-09-13T08:49:32.440Z,76.81
2022-09-13T08:52:05.352Z,73.25
2022-09-13T08:54:32.759Z,73.05
2022-09-13T08:57:25.992Z,75.40
2022-09-13T09:00:17.785Z,72.51
2022-09-13T09:03:11.714Z,71.50
2022-09-13T09:05:54.497Z,71.94
2022-09-13T09:08:38.886Z,72.01
2022-09-13T09:11:12.706Z,72.48
2022-09-13T09:13:53.495Z,71.42
2022-09-13T09:16:35.229Z,69.25
2022-09-13T09:19:17.863Z,71.87
2022-09-13T09:21:47.198Z,66.63
2022-09-13T09:24:21.833Z,64.71
2022-09-13T09:26:50.817Z,67.43
2022-09-13T09:29:25.043Z,64.20
2022-09-13T09:32:01.587Z,66.75
2022-09-13T09:34:42.654Z,67.16
2022-09-13T09:37:21.125Z,65.85
2022-09-13T09:39:49.231Z,66.13
2022-09-13T09:42:21.311Z,65.21
2022-09-13T09:45:03.607Z,64.41
2022-09-13T09:47:39.629Z,66.12
2022-09-13T09:50:19.266Z,65.29
2022-09-13T09:53:10.059Z,63.46
2022-09-13T09:55:53.364Z,64.63
2022-09-13T09:58:37.316Z,63.21
2022-09-13T10:01:03.986Z,59.74
2022-09-13T10:03:33.453Z,59.35
2022-09-13T10:06:09.225Z,60.04
2022-09-13T10:08:41.813Z,59.96
2022-09-13T10:11:09.351Z,59.69
2022-09-13T10:13:37.233Z,58.58
2022-09-13T10:16:25.148Z,59.55
2022-09-13T10:18:51.641Z,63.07
2022-09-13T10:21:17.971Z,60.54
2022-09-13T10:23:47.080Z,64.26
2022-09-13T10:26:18.652Z,58.54
2022-09-13T10:28:51.980Z,60.40
2022-09-13T10:31:20.951Z,61.26
2022-09-13T10:33:58.242Z,62.59
2022-09-13T10:36:51.006Z,63.83
2022-09-13T10:39:18.709Z,63.64
2022-09-13T10:41:50.397Z,61.62
2022-09-13T10:44:26.507Z,62.17
2022-09-13T10:46:55.296Z,61.36
2022-09-13T10:49:50.504Z,59.75
2022-09-13T10:52:31.202Z,59.90
2022-09-13T10:55:29.122Z,59.25
2022-09-13T10:58:01.782Z,61.00
2022-09-13T11:00:36.682Z,61.21
2022-09-13T11:03:29.829Z,62.30
2022-09-13T11:06:15.482Z,62.72
2022-09-13T11:08:46.417Z,62.60
2022-09-13T11:11:43.471Z,61.03
2022-09-13T11:14:38.954Z,61.41
2022-09-13T11:17:18.942Z,59.46
2022-09-13T11:19:58.954Z,60.57
2022-09-13T11:22:25.255Z,61.36
2022-09-13T11:25:11.242Z,60.84
2022-09-13T11:27:49.568Z,63.26
2022-09-13T11:30:20.494Z,62.12
2022-09-13T11:32:59.264Z,63.05
2022-09-13T11:35:44.312Z,63.24
2022-09-13T11:38:38.047Z,62.55
2022-09-13T11:41:23.744Z,58.12
2022-09-13T11:44:21.140Z,59.01
2022-09-13T11:47:02.704Z,57.13
2022-09-13T11:49:55.127Z,58.79
2022-09-13T11:52:49.773Z,63.11
2022-09-13T11:55:33.621Z,62.25
2022-09-13T11:58:07.303Z,62.19
2022-09-13T12:00:45.411Z,61.22
2022-09-13T12:03:37.248Z,57.67
2022-09-13T12:06:14.413Z,60.77
2022-09-13T12:08:51.524Z,61.14
2022-09-13T12:11:38.653Z,58.66
2022-09-13T12:14:13.530Z,57.63
2022-09-13T12:16:59.313Z,57.39
2022-09-13T12:19:28.991Z,59.57
2022-09-13T12:21:59.994Z,57.69
2022-09-13T12:24:46.120Z,57.21
2022-09-13T12:27:26.544Z,57.31
2022-09-13T12:29:57.488Z,57.45
2022-09-13T12:32:26.681Z,58.64
2022-09-13T12:35:07.942Z,58.08
2022-09-13T12:37:44.298Z,57.36
2022-09-13T12:40:44.221Z,58.92
2022-09-13T12:43:16.787Z,62.23
2022-09-13T12:46:16.039Z,58.16
2022-09-13T12:49:10.344Z,59.25
2022-09-13T12:51:42.419Z,57.87
2022-09-13T12:54:47.148Z,59.36
2022-09-13T12:57:23.827Z,57.75
2022-09-13T13:00:14.927Z,59.49
2022-09-13T13:02:59.624Z,61.35
2022-09-13T13:05:30.838Z,57.61
2022-09-13T13:08:06.836Z,60.32
2022-09-13T13:10:38.659Z,60.00
2022-09-13T13:13:35.932Z,62.65
2022-09-13T13:16:20.824Z,58.16
2022-09-13T13:18:52.490Z,58.60
2022-09-13T13:21:37.257Z,55.33
2022-09-13T13:24:15.773Z,54.88
2022-09-13T13:26:42.127Z,58.34
2022-09-13T13:29:18.039Z,56.35
2022-09-13T13:32:07.654Z,54.44
2022-09-13T13:34:39.026Z,54.73
2022-09-13T13:37:28.241Z,60.76
2022-09-13T13:40:13.177Z,54.59
2022-09-13T13:42:40.996Z,53.73
2022-09-13T13:45:21.285Z,55.13
2022-09-13T13:48:07.143Z,57.50
2022-09-13T13:50:36.248Z,54.71
2022-09-13T13:53:20.966Z,54.61
2022-09-13T13:55:49.295Z,55.52
2022-09-13T13:58:29.646Z,53.82
2022-09-13T14:01:02.316Z,52.58
2022-09-13T14:03:44.835Z,53.50
2022-09-13T14:06:21.622Z,50.86
2022-09-13T14:11:55.765Z,51.89
2022-09-13T14:14:46.327Z,54.84
2022-09-13T14:17:31.898Z,52.78
2022-09-13T14:20:09.439Z,55.64
2022-09-13T14:22:38.675Z,53.98
2022-09-13T14:25:19.963Z,54.33
2022-09-13T14:27:48.663Z,55.73
2022-09-13T14:30:20.181Z,53.27
2022-09-13T14:32:47.807Z,52.70
2022-09-13T14:35:36.892Z,52.41
2022-09-13T14:38:33.248Z,52.78
2022-09-13T14:41:13.473Z,54.16
2022-09-13T14:43:43.759Z,53.11
2022-09-13T14:46:34.946Z,53.57
2022-09-13T14:49:07.176Z,57.02
2022-09-13T14:51:40.782Z,53.83
2022-09-13T14:54:17.644Z,53.35
2022-09-13T14:56:55.049Z,52.74
2022-09-13T14:59:52.259Z,51.48
2022-09-13T15:02:22.788Z,51.54
2022-09-13T15:04:55.916Z,52.37
2022-09-13T15:07:30.039Z,52.85
2022-09-13T15:10:12.944Z,52.33
2022-09-13T15:12:58.157Z,53.54
2022-09-13T15:15:37.855Z,52.73
2022-09-13T15:18:16.498Z,52.54
2022-09-13T15:21:03.444Z,54.14
2022-09-13T15:23:39.326Z,54.53
2022-09-13T15:26:20.905Z,52.31
2022-09-13T15:29:00.536Z,52.75
2022-09-13T15:31:29.542Z,52.28
2022-09-13T15:34:17.972Z,53.09
2022-09-13T15:36:45.695Z,54.17
2022-09-13T15:39:17.657Z,51.95
2022-09-13T15:42:03.829Z,54.22
2022-09-13T15:44:30.324Z,56.92
2022-09-13T15:47:02.408Z,55.93
2022-09-13T15:49:32.197Z,54.43
2022-09-13T15:52:05.538Z,54.49
2022-09-13T15:54:41.294Z,53.92
2022-09-13T15:57:19.526Z,56.97
2022-09-13T15:59:46.032Z,55.10
2022-09-13T16:02:23.167Z,58.58
2022-09-13T16:04:52.030Z,56.96
2022-09-13T16:07:19.401Z,55.38
2022-09-13T16:09:46.531Z,55.09
2022-09-13T16:12:12.909Z,55.76
2022-09-13T16:14:42.353Z,56.98
2022-09-13T16:17:16.822Z,55.43
2022-09-13T16:19:43.172Z,55.50
2022-09-13T16:22:12.658Z,56.01
2022-09-13T16:24:39.433Z,58.98
2022-09-13T16:27:05.947Z,59.11
2022-09-13T16:29:32.493Z,58.26
2022-09-13T16:32:05.315Z,58.17
2022-09-13T16:34:34.456Z,57.37
2022-09-13T16:37:05.909Z,57.73
2022-09-13T16:39:32.411Z,58.29
2022-09-13T16:41:58.849Z,58.62
2022-09-13T16:44:25.369Z,60.72
2022-09-13T16:46:52.138Z,58.74
2022-09-13T16:49:18.849Z,58.64
2022-09-13T16:51:48.163Z,58.46
2022-09-13T16:54:14.572Z,58.80
2022-09-13T16:56:41.385Z,58.86
2022-09-13T16:59:07.990Z,57.88
2022-09-13T17:01:34.593Z,59.16
2022-09-13T17:04:01.830Z,59.63
2022-09-13T17:06:28.302Z,59.82
2022-09-13T17:09:03.539Z,60.46
2022-09-13T17:11:33.269Z,61.16
2022-09-13T17:14:01.299Z,61.60
2022-09-13T17:16:31.041Z,61.81
2022-09-13T17:18:59.880Z,62.33
2022-09-13T17:21:29.306Z,62.82
2022-09-13T17:23:55.743Z,63.46
2022-09-13T17:26:22.540Z,63.88
2022-09-13T17:28:49.541Z,63.28
2022-09-13T17:31:16.826Z,63.43
2022-09-13T17:33:46.202Z,63.55
2022-09-13T17:36:14.142Z,64.76
2022-09-13T17:38:43.255Z,65.10
2022-09-13T17:41:17.428Z,65.51
2022-09-13T17:43:45.687Z,66.56
2022-09-13T17:46:23.599Z,67.15
2022-09-13T17:48:56.994Z,67.11
2022-09-13T17:51:25.956Z,68.20
2022-09-13T17:53:58.767Z,68.03
2022-09-13T17:56:30.839Z,68.27
2022-09-13T17:59:05.843Z,68.70
2022-09-13T18:01:37.053Z,68.65
2022-09-13T18:04:03.868Z,68.81
2022-09-13T18:06:30.358Z,69.95
2022-09-13T18:08:58.308Z,69.88
2022-09-13T18:11:24.774Z,69.93
2022-09-13T18:13:53.924Z,70.95
2022-09-13T18:16:24.818Z,70.96
2022-09-13T18:18:52.759Z,71.69
2022-09-13T18:21:22.485Z,71.89
2022-09-13T18:23:50.680Z,71.95
2022-09-13T18:26:20.182Z,72.23
2022-09-13T18:28:47.929Z,72.50
2022-09-13T18:31:17.887Z,72.89
2022-09-13T18:33:45.638Z,73.03
2022-09-13T18:36:14.822Z,73.20
2022-09-13T18:38:44.280Z,73.80
2022-09-13T18:41:18.163Z,74.81
2022-09-13T18:43:52.951Z,74.31
2022-09-13T18:47:00.574Z,75.62
2022-09-13T18:50:04.482Z,77.16
2022-09-13T18:53:08.266Z,74.51
2022-09-13T18:56:12.450Z,76.59
2022-09-13T18:59:16.508Z,76.03
2022-09-13T19:02:20.554Z,75.52
2022-09-13T19:05:24.760Z,76.14
2022-09-13T19:08:29.597Z,76.15
2022-09-13T19:11:49.566Z,76.15
2022-09-13T19:14:53.829Z,76.61
2022-09-13T19:17:58.117Z,76.67
2022-09-13T19:21:04.738Z,76.62
2022-09-13T19:24:16.261Z,77.56
2022-09-13T19:27:20.619Z,77.87
2022-09-13T19:30:24.577Z,77.74
2022-09-13T19:33:28.775Z,78.32
2022-09-13T19:36:34.460Z,78.81
2022-09-13T19:39:38.830Z,79.25
2022-09-13T19:42:43.471Z,78.68
2022-09-13T19:45:10.965Z,78.98
2022-09-13T19:50:24.487Z,79.77
2022-09-13T19:52:50.845Z,79.39
2022-09-13T19:55:17.414Z,79.32
2022-09-13T19:57:45.104Z,81.89
2022-09-13T20:00:12.272Z,83.72
2022-09-13T20:02:38.613Z,83.25
2022-09-13T20:05:08.662Z,83.45
2022-09-13T20:07:35.153Z,84.27
2022-09-13T20:10:04.184Z,84.20
2022-09-13T20:12:32.836Z,83.80
2022-09-13T20:14:59.262Z,84.38
2022-09-13T20:17:25.593Z,85.48
2022-09-13T20:19:52.435Z,85.88
2022-09-13T20:22:18.863Z,86.81
2022-09-13T20:24:45.609Z,86.06
2022-09-13T20:27:12.701Z,87.61
2022-09-13T20:29:42.326Z,86.74
2022-09-13T20:32:09.443Z,85.05
2022-09-13T20:34:37.729Z,85.79
2022-09-13T20:37:04.603Z,85.11
2022-09-13T20:39:31.383Z,85.48
2022-09-13T20:42:00.270Z,87.20
2022-09-13T20:44:26.742Z,87.16
2022-09-13T20:46:55.419Z,86.09
2022-09-13T20:49:23.590Z,88.39
2022-09-13T20:51:50.091Z,87.43
2022-09-13T20:54:16.474Z,87.28
2022-09-13T20:56:43.003Z,87.52
2022-09-13T20:59:10.124Z,87.76
2022-09-13T21:01:36.550Z,87.82
2022-09-13T21:04:03.615Z,87.91
2022-09-13T21:06:32.243Z,87.58
2022-09-13T21:09:00.083Z,86.37
2022-09-13T21:11:35.625Z,87.78
2022-09-13T21:14:06.526Z,88.02
2022-09-13T21:16:35.832Z,86.86
2022-09-13T21:19:03.339Z,87.71
2022-09-13T21:21:31.900Z,88.65
2022-09-13T21:24:00.408Z,86.78
2022-09-13T21:26:31.458Z,87.00
2022-09-13T21:28:58.702Z,87.56
2022-09-13T21:31:30.566Z,88.46
2022-09-13T21:34:17.198Z,88.61
2022-09-13T21:36:44.886Z,88.94
2022-09-13T21:39:14.672Z,88.26
2022-09-13T21:41:41.134Z,90.60
2022-09-13T21:44:10.318Z,90.85
2022-09-13T21:46:38.258Z,91.71
2022-09-13T21:49:09.105Z,92.26
2022-09-13T21:51:38.717Z,89.51
2022-09-13T21:54:08.589Z,91.58
2022-09-13T21:56:42.607Z,89.06
2022-09-13T21:59:14.431Z,89.34
2022-09-13T22:01:42.047Z,91.35
2022-09-13T22:04:13.118Z,90.75
2022-09-13T22:06:39.534Z,89.96
2022-09-13T22:09:11.071Z,91.19
2022-09-13T22:11:40.218Z,93.14
2022-09-13T22:14:09.351Z,93.24
2022-09-13T22:16:38.786Z,94.42
2022-09-13T22:19:20.145Z,93.05
2022-09-13T22:21:50.906Z,94.46
2022-09-13T22:24:19.887Z,91.19
2022-09-13T22:26:47.714Z,90.73
2022-09-13T22:29:17.400Z,89.67
2022-09-13T22:31:46.281Z,89.33
2022-09-13T22:34:18.750Z,91.27
2022-09-13T22:36:45.664Z,91.42
2022-09-13T22:39:13.895Z,94.42
2022-09-13T22:41:40.486Z,91.87
2022-09-13T22:44:07.636Z,93.95
2022-09-13T22:46:37.413Z,93.83
2022-09-13T22:49:07.247Z,97.31
2022-09-13T22:51:34.232Z,98.25
2022-09-13T22:54:05.014Z,97.64
2022-09-13T22:56:34.469Z,100.00
2022-09-13T22:59:12.299Z,98.28
2022-09-13T23:01:39.481Z,100.00
2022-09-13T23:04:06.690Z,100.00
2022-09-13T23:06:34.492Z,99.39
2022-09-13T23:09:03.849Z,100.00
2022-09-13T23:11:40.092Z,100.00
2022-09-13T23:14:14.747Z,100.00
2022-09-13T23:16:48.746Z,100.00
2022-09-13T23:19:16.646Z,100.00
2022-09-13T23:21:43.839Z,100.00
2022-09-13T23:24:15.986Z,100.00
2022-09-13T23:26:47.947Z,100.00
2022-09-13T23:29:19.117Z,100.00
2022-09-13T23:31:51.958Z,100.00
2022-09-13T23:34:18.516Z,100.00
2022-09-13T23:36:46.234Z,100.00
2022-09-13T23:39:19.805Z,100.00
2022-09-13T23:41:47.499Z,100.00
2022-09-13T23:44:14.601Z,100.00
2022-09-13T23:46:42.664Z,100.00
2022-09-13T23:49:11.695Z,100.00
2022-09-13T23:51:40.804Z,100.00
2022-09-13T23:54:09.783Z,100.00
2022-09-13T23:56:36.164Z,100.00
2022-09-13T23:59:04.086Z,100.00
